sensor_id;sensor_type;location;lat;lon;timestamp;pressure;altitude;pressure_sealevel;temperature;humidity
86393;BME280;77036;45.602;11.902;2024-03-08T00:00:14;101567.34;;;21.21;52.76
86393;BME280;77036;45.602;11.902;2024-03-08T00:02:40;101571.16;;;21.20;52.96
86393;BME280;77036;45.602;11.902;2024-03-08T00:05:07;101568.41;;;21.20;52.76
86393;BME280;77036;45.602;11.902;2024-03-08T00:07:34;101563.97;;;21.19;52.74
86393;BME280;77036;45.602;11.902;2024-03-08T00:10:02;101567.56;;;21.20;52.77
86393;BME280;77036;45.602;11.902;2024-03-08T00:12:28;101562.25;;;21.18;52.86
86393;BME280;77036;45.602;11.902;2024-03-08T00:14:53;101563.09;;;21.19;52.67
86393;BME280;77036;45.602;11.902;2024-03-08T00:17:20;101554.81;;;21.19;52.75
86393;BME280;77036;45.602;11.902;2024-03-08T00:19:48;101552.91;;;21.19;52.64
86393;BME280;77036;45.602;11.902;2024-03-08T00:22:15;101545.69;;;21.18;52.77
86393;BME280;77036;45.602;11.902;2024-03-08T00:24:42;101544.84;;;21.18;52.74
86393;BME280;77036;45.602;11.902;2024-03-08T00:27:07;101538.91;;;21.14;52.80
86393;BME280;77036;45.602;11.902;2024-03-08T00:29:34;101549.50;;;21.17;52.80
86393;BME280;77036;45.602;11.902;2024-03-08T00:32:00;101540.38;;;21.17;52.92
86393;BME280;77036;45.602;11.902;2024-03-08T00:34:26;101545.91;;;21.17;52.84
86393;BME280;77036;45.602;11.902;2024-03-08T00:36:52;101545.91;;;21.17;52.83
86393;BME280;77036;45.602;11.902;2024-03-08T00:39:18;101531.84;;;21.12;52.83
86393;BME280;77036;45.602;11.902;2024-03-08T00:41:46;101542.50;;;21.15;52.68
86393;BME280;77036;45.602;11.902;2024-03-08T00:44:11;101534.22;;;21.15;52.70
86393;BME280;77036;45.602;11.902;2024-03-08T00:46:37;101529.56;;;21.15;52.89
86393;BME280;77036;45.602;11.902;2024-03-08T00:49:03;101535.28;;;21.14;52.85
86393;BME280;77036;45.602;11.902;2024-03-08T00:51:29;101528.72;;;21.15;53.10
86393;BME280;77036;45.602;11.902;2024-03-08T00:53:54;101538.03;;;21.14;52.78
86393;BME280;77036;45.602;11.902;2024-03-08T00:56:20;101533.59;;;21.13;52.74
86393;BME280;77036;45.602;11.902;2024-03-08T00:58:46;101541.66;;;21.14;53.05
86393;BME280;77036;45.602;11.902;2024-03-08T01:01:13;101542.88;;;21.12;53.04
86393;BME280;77036;45.602;11.902;2024-03-08T01:03:43;101536.34;;;21.13;53.14
86393;BME280;77036;45.602;11.902;2024-03-08T01:06:08;101536.34;;;21.13;52.90
86393;BME280;77036;45.602;11.902;2024-03-08T01:08:34;101541.84;;;21.13;52.83
86393;BME280;77036;45.602;11.902;2024-03-08T01:10:59;101528.22;;;21.11;52.81
86393;BME280;77036;45.602;11.902;2024-03-08T01:13:25;101529.09;;;21.12;52.91
86393;BME280;77036;45.602;11.902;2024-03-08T01:15:51;101518.47;;;21.08;52.90
86393;BME280;77036;45.602;11.902;2024-03-08T01:18:16;101519.78;;;21.13;52.94
86393;BME280;77036;45.602;11.902;2024-03-08T01:20:42;101518.03;;;21.12;52.88
86393;BME280;77036;45.602;11.902;2024-03-08T01:23:07;101518.03;;;21.12;52.70
86393;BME280;77036;45.602;11.902;2024-03-08T01:25:34;101529.09;;;21.12;52.80
86393;BME280;77036;45.602;11.902;2024-03-08T01:27:59;101525.31;;;21.13;52.90
86393;BME280;77036;45.602;11.902;2024-03-08T01:30:25;101511.31;;;21.14;52.74
86393;BME280;77036;45.602;11.902;2024-03-08T01:32:50;101512.16;;;21.15;52.69
86393;BME280;77036;45.602;11.902;2024-03-08T01:35:16;101513.00;;;21.15;52.60
86393;BME280;77036;45.602;11.902;2024-03-08T01:37:41;101508.31;;;21.16;52.46
86393;BME280;77036;45.602;11.902;2024-03-08T01:40:07;101510.00;;;21.17;52.54
86393;BME280;77036;45.602;11.902;2024-03-08T01:42:34;101507.25;;;21.17;52.79
86393;BME280;77036;45.602;11.902;2024-03-08T01:45:05;101511.72;;;21.18;52.50
86393;BME280;77036;45.602;11.902;2024-03-08T01:47:31;101518.09;;;21.18;52.51
86393;BME280;77036;45.602;11.902;2024-03-08T01:49:58;101513.44;;;21.19;52.36
86393;BME280;77036;45.602;11.902;2024-03-08T01:52:28;101515.13;;;21.20;52.40
86393;BME280;77036;45.602;11.902;2024-03-08T01:54:54;101503.44;;;21.18;52.52
86393;BME280;77036;45.602;11.902;2024-03-08T01:57:20;101517.03;;;21.19;52.40
86393;BME280;77036;45.602;11.902;2024-03-08T01:59:46;101504.50;;;21.17;52.31
86393;BME280;77036;45.602;11.902;2024-03-08T02:02:14;101514.28;;;21.19;52.77
86393;BME280;77036;45.602;11.902;2024-03-08T02:04:43;101504.09;;;21.20;52.15
86393;BME280;77036;45.602;11.902;2024-03-08T02:07:10;101504.50;;;21.17;52.14
86393;BME280;77036;45.602;11.902;2024-03-08T02:09:36;101509.38;;;21.21;52.37
86393;BME280;77036;45.602;11.902;2024-03-08T02:12:02;101504.91;;;21.20;52.37
86393;BME280;77036;45.602;11.902;2024-03-08T02:14:28;101504.72;;;21.22;52.27
86393;BME280;77036;45.602;11.902;2024-03-08T02:16:53;101511.28;;;21.21;52.14
86393;BME280;77036;45.602;11.902;2024-03-08T02:19:19;101501.53;;;21.18;52.29
86393;BME280;77036;45.602;11.902;2024-03-08T02:21:46;101513.00;;;21.22;52.23
86393;BME280;77036;45.602;11.902;2024-03-08T02:24:12;101511.28;;;21.21;52.26
86393;BME280;77036;45.602;11.902;2024-03-08T02:26:38;101505.78;;;21.21;52.11
86393;BME280;77036;45.602;11.902;2024-03-08T02:29:04;101501.97;;;21.22;52.25
86393;BME280;77036;45.602;11.902;2024-03-08T02:31:30;101493.69;;;21.22;52.09
86393;BME280;77036;45.602;11.902;2024-03-08T02:33:56;101495.38;;;21.23;52.01
86393;BME280;77036;45.602;11.902;2024-03-08T02:36:23;101494.34;;;21.24;52.12
86393;BME280;77036;45.602;11.902;2024-03-08T02:38:48;101489.00;;;21.22;52.04
86393;BME280;77036;45.602;11.902;2024-03-08T02:41:14;101486.25;;;21.22;51.81
86393;BME280;77036;45.602;11.902;2024-03-08T02:43:39;101485.19;;;21.23;52.06
86393;BME280;77036;45.602;11.902;2024-03-08T02:46:05;101487.97;;;21.23;52.09
86393;BME280;77036;45.602;11.902;2024-03-08T02:48:30;101488.81;;;21.24;52.08
86393;BME280;77036;45.602;11.902;2024-03-08T02:50:56;101488.81;;;21.24;51.94
86393;BME280;77036;45.602;11.902;2024-03-08T02:53:22;101492.63;;;21.23;52.13
86393;BME280;77036;45.602;11.902;2024-03-08T02:55:47;101497.09;;;21.24;51.92
86393;BME280;77036;45.602;11.902;2024-03-08T02:58:13;101500.69;;;21.24;51.94
86393;BME280;77036;45.602;11.902;2024-03-08T03:00:40;101489.88;;;21.23;51.99
86393;BME280;77036;45.602;11.902;2024-03-08T03:03:06;101493.25;;;21.25;52.14
86393;BME280;77036;45.602;11.902;2024-03-08T03:05:32;101496.44;;;21.22;51.92
86393;BME280;77036;45.602;11.902;2024-03-08T03:07:59;101487.72;;;21.25;51.86
86393;BME280;77036;45.602;11.902;2024-03-08T03:10:24;101495.38;;;21.23;52.05
86393;BME280;77036;45.602;11.902;2024-03-08T03:12:51;101488.81;;;21.24;51.99
86393;BME280;77036;45.602;11.902;2024-03-08T03:15:17;101479.25;;;21.20;52.04
86393;BME280;77036;45.602;11.902;2024-03-08T03:17:49;101486.06;;;21.24;51.98
86393;BME280;77036;45.602;11.902;2024-03-08T03:20:19;101482.44;;;21.23;51.90
86393;BME280;77036;45.602;11.902;2024-03-08T03:22:58;101485.19;;;21.23;51.88
86393;BME280;77036;45.602;11.902;2024-03-08T03:25:26;101488.81;;;21.24;51.99
86393;BME280;77036;45.602;11.902;2024-03-08T03:27:54;101492.41;;;21.24;52.11
86393;BME280;77036;45.602;11.902;2024-03-08T03:30:23;101489.66;;;21.24;52.01
86393;BME280;77036;45.602;11.902;2024-03-08T03:32:52;101483.28;;;21.24;51.79
86393;BME280;77036;45.602;11.902;2024-03-08T03:35:18;101495.19;;;21.24;51.91
86393;BME280;77036;45.602;11.902;2024-03-08T03:37:44;101484.34;;;21.23;51.79
86393;BME280;77036;45.602;11.902;2024-03-08T03:40:28;101486.06;;;21.24;51.94
86393;BME280;77036;45.602;11.902;2024-03-08T03:42:54;101483.28;;;21.24;51.95
86393;BME280;77036;45.602;11.902;2024-03-08T03:45:20;101483.50;;;21.22;51.79
86393;BME280;77036;45.602;11.902;2024-03-08T03:47:46;101491.56;;;21.24;51.94
86393;BME280;77036;45.602;11.902;2024-03-08T03:50:11;101486.91;;;21.24;51.71
86393;BME280;77036;45.602;11.902;2024-03-08T03:52:37;101499.63;;;21.25;51.74
86393;BME280;77036;45.602;11.902;2024-03-08T03:55:04;101494.34;;;21.24;51.91
86393;BME280;77036;45.602;11.902;2024-03-08T03:57:30;101499.84;;;21.24;51.95
86393;BME280;77036;45.602;11.902;2024-03-08T03:59:56;101492.63;;;21.23;51.94
86393;BME280;77036;45.602;11.902;2024-03-08T04:02:24;101492.63;;;21.23;52.12
86393;BME280;77036;45.602;11.902;2024-03-08T04:04:50;101503.66;;;21.23;52.16
86393;BME280;77036;45.602;11.902;2024-03-08T04:07:16;101492.22;;;21.19;52.23
86393;BME280;77036;45.602;11.902;2024-03-08T04:09:41;101498.56;;;21.20;52.21
86393;BME280;77036;45.602;11.902;2024-03-08T04:12:07;101501.53;;;21.18;52.28
86393;BME280;77036;45.602;11.902;2024-03-08T04:14:35;101491.75;;;21.16;52.43
86393;BME280;77036;45.602;11.902;2024-03-08T04:17:01;101500.69;;;21.18;52.29
86393;BME280;77036;45.602;11.902;2024-03-08T04:19:27;101504.50;;;21.17;52.41
86393;BME280;77036;45.602;11.902;2024-03-08T04:21:53;101503.66;;;21.16;52.26
86393;BME280;77036;45.602;11.902;2024-03-08T04:24:19;101495.59;;;21.15;52.21
86393;BME280;77036;45.602;11.902;2024-03-08T04:26:46;101495.34;;;21.10;52.30
86393;BME280;77036;45.602;11.902;2024-03-08T04:29:11;101504.06;;;21.13;52.24
86393;BME280;77036;45.602;11.902;2024-03-08T04:31:40;101502.34;;;21.12;52.39
86393;BME280;77036;45.602;11.902;2024-03-08T04:34:06;101489.44;;;21.13;52.41
86393;BME280;77036;45.602;11.902;2024-03-08T04:36:31;101505.97;;;21.13;52.44
86393;BME280;77036;45.602;11.902;2024-03-08T04:38:57;101497.06;;;21.11;52.42
86393;BME280;77036;45.602;11.902;2024-03-08T04:41:23;101497.06;;;21.11;52.17
86393;BME280;77036;45.602;11.902;2024-03-08T04:43:49;101492.59;;;21.10;52.51
86393;BME280;77036;45.602;11.902;2024-03-08T04:46:14;101494.28;;;21.11;52.38
86393;BME280;77036;45.602;11.902;2024-03-08T04:48:41;101498.97;;;21.10;52.30
86393;BME280;77036;45.602;11.902;2024-03-08T04:51:08;101510.19;;;21.08;52.67
86393;BME280;77036;45.602;11.902;2024-03-08T04:53:35;101515.09;;;21.06;52.51
86393;BME280;77036;45.602;11.902;2024-03-08T04:56:00;101520.19;;;21.10;52.34
86393;BME280;77036;45.602;11.902;2024-03-08T04:58:31;101529.50;;;21.08;52.39
86393;BME280;77036;45.602;11.902;2024-03-08T05:00:57;101519.31;;;21.02;52.46
86393;BME280;77036;45.602;11.902;2024-03-08T05:03:23;101521.00;;;21.03;52.37
86393;BME280;77036;45.602;11.902;2024-03-08T05:05:51;101524.44;;;21.05;52.52
86393;BME280;77036;45.602;11.902;2024-03-08T05:08:17;101527.59;;;21.02;52.20
86393;BME280;77036;45.602;11.902;2024-03-08T05:10:44;101532.69;;;21.05;52.29
86393;BME280;77036;45.602;11.902;2024-03-08T05:13:09;101530.81;;;21.06;52.35
86393;BME280;77036;45.602;11.902;2024-03-08T05:15:35;101525.47;;;21.04;52.40
86393;BME280;77036;45.602;11.902;2024-03-08T05:18:02;101520.81;;;21.05;52.28
86393;BME280;77036;45.602;11.902;2024-03-08T05:20:27;101533.75;;;21.04;52.23
86393;BME280;77036;45.602;11.902;2024-03-08T05:22:53;101540.97;;;21.05;52.52
86393;BME280;77036;45.602;11.902;2024-03-08T05:25:18;101540.97;;;21.05;52.38
86393;BME280;77036;45.602;11.902;2024-03-08T05:27:44;101541.38;;;21.02;52.37
86393;BME280;77036;45.602;11.902;2024-03-08T05:30:10;101548.22;;;21.06;52.00
86393;BME280;77036;45.602;11.902;2024-03-08T05:32:41;101546.28;;;21.07;52.17
86393;BME280;77036;45.602;11.902;2024-03-08T05:35:11;101557.09;;;21.08;51.99
86393;BME280;77036;45.602;11.902;2024-03-08T05:37:38;101556.25;;;21.08;51.76
86393;BME280;77036;45.602;11.902;2024-03-08T05:40:05;101556.25;;;21.08;51.88
86393;BME280;77036;45.602;11.902;2024-03-08T05:42:38;101558.81;;;21.10;51.80
86393;BME280;77036;45.602;11.902;2024-03-08T05:45:05;101557.97;;;21.09;51.74
86393;BME280;77036;45.602;11.902;2024-03-08T05:47:32;101566.03;;;21.11;51.69
86393;BME280;77036;45.602;11.902;2024-03-08T05:49:58;101555.81;;;21.04;51.79
86393;BME280;77036;45.602;11.902;2024-03-08T05:52:24;101561.34;;;21.11;51.51
86393;BME280;77036;45.602;11.902;2024-03-08T05:54:51;101562.19;;;21.12;51.55
86393;BME280;77036;45.602;11.902;2024-03-08T05:57:17;101567.72;;;21.12;51.56
86393;BME280;77036;45.602;11.902;2024-03-08T05:59:43;101563.94;;;21.13;51.72
86393;BME280;77036;45.602;11.902;2024-03-08T06:02:09;101555.66;;;21.13;51.50
86393;BME280;77036;45.602;11.902;2024-03-08T06:04:34;101564.78;;;21.13;51.18
86393;BME280;77036;45.602;11.902;2024-03-08T06:07:00;101560.13;;;21.14;51.26
86393;BME280;77036;45.602;11.902;2024-03-08T06:09:26;101556.31;;;21.15;51.34
86393;BME280;77036;45.602;11.902;2024-03-08T06:11:52;101558.22;;;21.14;51.55
86393;BME280;77036;45.602;11.902;2024-03-08T06:14:19;101565.63;;;21.14;51.30
86393;BME280;77036;45.602;11.902;2024-03-08T06:16:45;101564.78;;;21.13;51.04
86393;BME280;77036;45.602;11.902;2024-03-08T06:19:12;101568.41;;;21.14;51.35
86393;BME280;77036;45.602;11.902;2024-03-08T06:21:39;101567.34;;;21.15;51.32
86393;BME280;77036;45.602;11.902;2024-03-08T06:24:05;101575.63;;;21.15;51.19
86393;BME280;77036;45.602;11.902;2024-03-08T06:26:30;101579.25;;;21.15;50.96
86393;BME280;77036;45.602;11.902;2024-03-08T06:28:56;101575.13;;;21.11;50.91
86393;BME280;77036;45.602;11.902;2024-03-08T06:31:22;101579.25;;;21.15;51.23
86393;BME280;77036;45.602;11.902;2024-03-08T06:33:48;101585.56;;;21.16;51.20
86393;BME280;77036;45.602;11.902;2024-03-08T06:36:17;101583.06;;;21.14;51.16
86393;BME280;77036;45.602;11.902;2024-03-08T06:38:47;101585.56;;;21.16;51.18
86393;BME280;77036;45.602;11.902;2024-03-08T06:41:13;101584.97;;;21.14;51.21
86393;BME280;77036;45.602;11.902;2024-03-08T06:43:44;101585.56;;;21.16;51.21
86393;BME280;77036;45.602;11.902;2024-03-08T06:46:10;101596.00;;;21.14;50.96
86393;BME280;77036;45.602;11.902;2024-03-08T06:48:38;101593.25;;;21.14;50.74
86393;BME280;77036;45.602;11.902;2024-03-08T06:51:05;101600.22;;;21.16;50.69
86393;BME280;77036;45.602;11.902;2024-03-08T06:53:31;101595.56;;;21.17;50.99
86393;BME280;77036;45.602;11.902;2024-03-08T06:55:57;101600.03;;;21.18;51.14
86393;BME280;77036;45.602;11.902;2024-03-08T06:58:23;101601.50;;;21.20;51.61
86393;BME280;77036;45.602;11.902;2024-03-08T07:00:49;101605.13;;;21.21;51.77
86393;BME280;77036;45.602;11.902;2024-03-08T07:03:18;101599.59;;;21.21;51.87
86393;BME280;77036;45.602;11.902;2024-03-08T07:05:43;101600.06;;;21.24;51.94
86393;BME280;77036;45.602;11.902;2024-03-08T07:08:10;101611.91;;;21.25;52.04
86393;BME280;77036;45.602;11.902;2024-03-08T07:10:39;101597.50;;;21.23;52.35
86393;BME280;77036;45.602;11.902;2024-03-08T07:13:07;101604.28;;;21.27;52.63
86393;BME280;77036;45.602;11.902;2024-03-08T07:15:32;101607.69;;;21.29;52.32
86393;BME280;77036;45.602;11.902;2024-03-08T07:17:58;101609.38;;;21.30;52.57
86393;BME280;77036;45.602;11.902;2024-03-08T07:20:25;101615.97;;;21.29;52.31
86393;BME280;77036;45.602;11.902;2024-03-08T07:22:51;101622.56;;;21.28;52.46
86393;BME280;77036;45.602;11.902;2024-03-08T07:25:18;101627.22;;;21.27;52.55
86393;BME280;77036;45.602;11.902;2024-03-08T07:27:53;101616.38;;;21.26;52.57
86393;BME280;77036;45.602;11.902;2024-03-08T07:30:20;101620.19;;;21.25;52.72
86393;BME280;77036;45.602;11.902;2024-03-08T07:33:09;101619.59;;;21.23;52.61
86393;BME280;77036;45.602;11.902;2024-03-08T07:35:37;101625.72;;;21.25;52.98
86393;BME280;77036;45.602;11.902;2024-03-08T07:38:04;101622.97;;;21.25;53.05
86393;BME280;77036;45.602;11.902;2024-03-08T07:40:37;101614.69;;;21.25;52.98
86393;BME280;77036;45.602;11.902;2024-03-08T07:43:10;101622.13;;;21.24;53.11
86393;BME280;77036;45.602;11.902;2024-03-08T07:45:39;101627.22;;;21.27;53.09
86393;BME280;77036;45.602;11.902;2024-03-08T07:48:05;101627.22;;;21.27;53.18
86393;BME280;77036;45.602;11.902;2024-03-08T07:50:38;101625.31;;;21.28;53.31
86393;BME280;77036;45.602;11.902;2024-03-08T07:53:05;101621.28;;;21.24;53.41
86393;BME280;77036;45.602;11.902;2024-03-08T07:55:34;101625.72;;;21.25;53.51
86393;BME280;77036;45.602;11.902;2024-03-08T07:58:04;101625.94;;;21.23;53.50
86393;BME280;77036;45.602;11.902;2024-03-08T08:00:32;101628.72;;;21.23;53.64
86393;BME280;77036;45.602;11.902;2024-03-08T08:02:58;101627.88;;;21.23;53.42
86393;BME280;77036;45.602;11.902;2024-03-08T08:05:23;101621.91;;;21.19;53.35
86393;BME280;77036;45.602;11.902;2024-03-08T08:07:49;101622.97;;;21.18;53.11
86393;BME280;77036;45.602;11.902;2024-03-08T08:10:15;101623.81;;;21.19;53.26
86393;BME280;77036;45.602;11.902;2024-03-08T08:12:47;101622.13;;;21.18;53.32
86393;BME280;77036;45.602;11.902;2024-03-08T08:15:13;101628.50;;;21.18;53.43
86393;BME280;77036;45.602;11.902;2024-03-08T08:17:44;101624.88;;;21.18;53.47
86393;BME280;77036;45.602;11.902;2024-03-08T08:20:11;101625.31;;;21.15;53.33
86393;BME280;77036;45.602;11.902;2024-03-08T08:22:39;101631.44;;;21.17;53.43
86393;BME280;77036;45.602;11.902;2024-03-08T08:25:06;101632.50;;;21.16;53.35
86393;BME280;77036;45.602;11.902;2024-03-08T08:27:31;101635.25;;;21.16;53.63
86393;BME280;77036;45.602;11.902;2024-03-08T08:29:57;101628.06;;;21.15;53.52
86393;BME280;77036;45.602;11.902;2024-03-08T08:32:24;101636.34;;;21.15;53.51
86393;BME280;77036;45.602;11.902;2024-03-08T08:34:49;101623.59;;;21.14;53.65
86393;BME280;77036;45.602;11.902;2024-03-08T08:37:15;101631.03;;;21.13;53.42
86393;BME280;77036;45.602;11.902;2024-03-08T08:39:42;101626.34;;;21.14;53.52
86393;BME280;77036;45.602;11.902;2024-03-08T08:42:07;101628.41;;;21.12;53.65
86393;BME280;77036;45.602;11.902;2024-03-08T08:44:35;101626.50;;;21.12;53.58
86393;BME280;77036;45.602;11.902;2024-03-08T08:47:01;101623.75;;;21.12;53.45
86393;BME280;77036;45.602;11.902;2024-03-08T08:49:29;101619.53;;;21.10;53.44
86393;BME280;77036;45.602;11.902;2024-03-08T08:51:56;101628.41;;;21.12;53.77
86393;BME280;77036;45.602;11.902;2024-03-08T08:54:23;101628.41;;;21.12;53.65
86393;BME280;77036;45.602;11.902;2024-03-08T08:56:50;101633.94;;;21.12;53.51
86393;BME280;77036;45.602;11.902;2024-03-08T08:59:16;101636.69;;;21.12;53.44
86393;BME280;77036;45.602;11.902;2024-03-08T09:01:45;101633.09;;;21.11;53.47
86393;BME280;77036;45.602;11.902;2024-03-08T09:04:12;101637.78;;;21.11;53.43
86393;BME280;77036;45.602;11.902;2024-03-08T09:06:38;101635.03;;;21.11;53.64
86393;BME280;77036;45.602;11.902;2024-03-08T09:09:07;101639.88;;;21.08;53.42
86393;BME280;77036;45.602;11.902;2024-03-08T09:11:36;101630.97;;;21.06;53.42
86393;BME280;77036;45.602;11.902;2024-03-08T09:14:07;101638.84;;;21.10;53.27
86393;BME280;77036;45.602;11.902;2024-03-08T09:16:32;101645.22;;;21.10;53.33
86393;BME280;77036;45.602;11.902;2024-03-08T09:18:59;101639.69;;;21.10;53.33
86393;BME280;77036;45.602;11.902;2024-03-08T09:21:25;101640.53;;;21.11;53.41
86393;BME280;77036;45.602;11.902;2024-03-08T09:23:52;101636.69;;;21.12;53.47
86393;BME280;77036;45.602;11.902;2024-03-08T09:26:19;101625.66;;;21.12;53.51
86393;BME280;77036;45.602;11.902;2024-03-08T09:28:44;101627.56;;;21.11;53.09
86393;BME280;77036;45.602;11.902;2024-03-08T09:31:11;101626.75;;;21.11;53.14
86393;BME280;77036;45.602;11.902;2024-03-08T09:33:37;101629.50;;;21.11;52.85
86393;BME280;77036;45.602;11.902;2024-03-08T09:36:06;101620.38;;;21.10;52.65
86393;BME280;77036;45.602;11.902;2024-03-08T09:38:33;101621.22;;;21.11;52.38
86393;BME280;77036;45.602;11.902;2024-03-08T09:41:00;101618.47;;;21.11;52.18
86393;BME280;77036;45.602;11.902;2024-03-08T09:43:28;101604.84;;;21.02;52.10
86393;BME280;77036;45.602;11.902;2024-03-08T09:45:55;101617.38;;;21.12;51.71
86393;BME280;77036;45.602;11.902;2024-03-08T09:48:21;101618.25;;;21.12;51.81
86393;BME280;77036;45.602;11.902;2024-03-08T09:50:47;101615.31;;;21.14;51.67
86393;BME280;77036;45.602;11.902;2024-03-08T09:53:13;101619.13;;;21.13;51.56
86393;BME280;77036;45.602;11.902;2024-03-08T09:55:39;101621.69;;;21.14;51.37
86393;BME280;77036;45.602;11.902;2024-03-08T09:58:11;101628.06;;;21.15;51.63
86393;BME280;77036;45.602;11.902;2024-03-08T10:00:43;101628.69;;;21.17;51.82
86393;BME280;77036;45.602;11.902;2024-03-08T10:03:09;101624.88;;;21.18;51.76
86393;BME280;77036;45.602;11.902;2024-03-08T10:05:36;101626.78;;;21.17;51.69
86393;BME280;77036;45.602;11.902;2024-03-08T10:08:02;101629.34;;;21.19;51.90
86393;BME280;77036;45.602;11.902;2024-03-08T10:10:28;101628.06;;;21.21;51.73
86393;BME280;77036;45.602;11.902;2024-03-08T10:12:54;101623.81;;;21.19;52.12
86393;BME280;77036;45.602;11.902;2024-03-08T10:15:20;101631.06;;;21.20;52.19
86393;BME280;77036;45.602;11.902;2024-03-08T10:17:46;101621.69;;;21.21;52.32
86393;BME280;77036;45.602;11.902;2024-03-08T10:20:15;101622.13;;;21.24;52.34
86393;BME280;77036;45.602;11.902;2024-03-08T10:22:42;101622.97;;;21.25;52.21
86393;BME280;77036;45.602;11.902;2024-03-08T10:25:11;101624.47;;;21.27;52.27
86393;BME280;77036;45.602;11.902;2024-03-08T10:27:41;101624.91;;;21.31;52.49
86393;BME280;77036;45.602;11.902;2024-03-08T10:30:16;101617.28;;;21.33;52.35
86393;BME280;77036;45.602;11.902;2024-03-08T10:32:47;101617.03;;;21.34;52.36
86393;BME280;77036;45.602;11.902;2024-03-08T10:35:13;101620.47;;;21.36;52.19
86393;BME280;77036;45.602;11.902;2024-03-08T10:40:17;101619.16;;;21.39;52.44
86393;BME280;77036;45.602;11.902;2024-03-08T10:43:00;101617.25;;;21.39;52.56
86393;BME280;77036;45.602;11.902;2024-03-08T10:45:38;101624.69;;;21.39;52.35
86393;BME280;77036;45.602;11.902;2024-03-08T10:48:30;101625.97;;;21.36;52.37
86393;BME280;77036;45.602;11.902;2024-03-08T10:51:02;101616.19;;;21.34;52.61
86393;BME280;77036;45.602;11.902;2024-03-08T10:53:29;101618.09;;;21.33;52.91
86393;BME280;77036;45.602;11.902;2024-03-08T10:55:56;101621.09;;;21.32;52.72
86393;BME280;77036;45.602;11.902;2024-03-08T10:58:24;101619.38;;;21.31;52.80
86393;BME280;77036;45.602;11.902;2024-03-08T11:00:57;101616.81;;;21.29;53.06
86393;BME280;77036;45.602;11.902;2024-03-08T11:06:18;101634.47;;;21.28;53.00
86393;BME280;77036;45.602;11.902;2024-03-08T11:08:47;101625.53;;;21.26;53.08
86393;BME280;77036;45.602;11.902;2024-03-08T11:13:53;101629.34;;;21.25;53.22
86393;BME280;77036;45.602;11.902;2024-03-08T11:18:55;101624.66;;;21.26;53.17
86393;BME280;77036;45.602;11.902;2024-03-08T11:21:22;101616.19;;;21.27;53.05
86393;BME280;77036;45.602;11.902;2024-03-08T11:24:01;101621.28;;;21.24;53.42
86393;BME280;77036;45.602;11.902;2024-03-08T11:26:27;101618.72;;;21.22;53.13
86393;BME280;77036;45.602;11.902;2024-03-08T11:29:34;101614.91;;;21.23;53.18
86393;BME280;77036;45.602;11.902;2024-03-08T11:32:17;101616.81;;;21.23;53.04
86393;BME280;77036;45.602;11.902;2024-03-08T11:34:48;101629.97;;;21.21;52.93
86393;BME280;77036;45.602;11.902;2024-03-08T11:37:19;101620.00;;;21.20;53.11
86393;BME280;77036;45.602;11.902;2024-03-08T11:39:50;101621.06;;;21.19;52.74
86393;BME280;77036;45.602;11.902;2024-03-08T11:42:17;101613.63;;;21.19;52.77
86393;BME280;77036;45.602;11.902;2024-03-08T11:44:46;101621.91;;;21.19;52.72
86393;BME280;77036;45.602;11.902;2024-03-08T11:47:14;101627.63;;;21.18;52.64
86393;BME280;77036;45.602;11.902;2024-03-08T11:49:40;101626.78;;;21.17;52.78
86393;BME280;77036;45.602;11.902;2024-03-08T11:52:16;101631.88;;;21.14;52.55
86393;BME280;77036;45.602;11.902;2024-03-08T11:54:53;101629.53;;;21.17;52.25
86393;BME280;77036;45.602;11.902;2024-03-08T11:57:21;101618.69;;;21.16;52.62
86393;BME280;77036;45.602;11.902;2024-03-08T11:59:54;101619.16;;;21.19;52.54
86393;BME280;77036;45.602;11.902;2024-03-08T12:02:22;101618.72;;;21.29;53.67
86393;BME280;77036;45.602;11.902;2024-03-08T12:04:59;101611.94;;;21.38;53.52
86393;BME280;77036;45.602;11.902;2024-03-08T12:07:26;101610.06;;;21.45;53.42
86393;BME280;77036;45.602;11.902;2024-03-08T12:12:45;101598.38;;;21.56;52.78
86393;BME280;77036;45.602;11.902;2024-03-08T12:15:12;101599.63;;;21.60;52.99
86393;BME280;77036;45.602;11.902;2024-03-08T12:17:38;101591.56;;;21.65;52.68
86393;BME280;77036;45.602;11.902;2024-03-08T12:20:21;101596.47;;;21.70;52.30
86393;BME280;77036;45.602;11.902;2024-03-08T12:22:48;101577.97;;;21.70;52.33
86393;BME280;77036;45.602;11.902;2024-03-08T12:25:15;101579.25;;;21.74;52.66
86393;BME280;77036;45.602;11.902;2024-03-08T12:27:42;101577.53;;;21.80;53.16
86393;BME280;77036;45.602;11.902;2024-03-08T12:30:27;101573.06;;;21.92;53.44
86393;BME280;77036;45.602;11.902;2024-03-08T12:33:00;101566.06;;;22.03;53.29
86393;BME280;77036;45.602;11.902;2024-03-08T12:35:30;101562.63;;;22.14;52.91
86393;BME280;77036;45.602;11.902;2024-03-08T12:37:59;101572.41;;;22.16;52.62
86393;BME280;77036;45.602;11.902;2024-03-08T12:40:27;101564.53;;;22.13;52.83
86393;BME280;77036;45.602;11.902;2024-03-08T12:42:55;101568.56;;;22.24;52.61
86393;BME280;77036;45.602;11.902;2024-03-08T12:45:21;101558.50;;;22.36;52.11
86393;BME280;77036;45.602;11.902;2024-03-08T12:47:50;101563.59;;;22.46;51.91
86393;BME280;77036;45.602;11.902;2024-03-08T12:50:16;101558.66;;;22.54;51.61
86393;BME280;77036;45.602;11.902;2024-03-08T12:52:42;101565.69;;;22.57;51.21
86393;BME280;77036;45.602;11.902;2024-03-08T12:55:08;101565.63;;;22.63;51.03